createdAt,value
2022-10-02T00:03:47.484Z,22.34
2022-10-02T00:08:47.633Z,22.00
2022-10-02T00:13:49.838Z,21.90
2022-10-02T00:18:50.144Z,21.83
2022-10-02T00:23:56.031Z,21.79
2022-10-02T00:29:06.715Z,21.63
2022-10-02T00:34:21.704Z,21.47
2022-10-02T00:39:33.670Z,21.11
2022-10-02T00:44:54.135Z,21.14
2022-10-02T00:50:07.180Z,21.16
2022-10-02T00:55:33.080Z,21.12
2022-10-02T01:00:31.855Z,21.23
2022-10-02T01:05:32.408Z,21.17
2022-10-02T01:10:31.339Z,20.81
2022-10-02T01:15:33.513Z,20.71
2022-10-02T01:20:38.831Z,20.84
2022-10-02T01:25:39.031Z,20.81
2022-10-02T01:30:40.950Z,20.70
2022-10-02T01:35:41.263Z,20.74
2022-10-02T01:40:42.413Z,20.73
2022-10-02T01:46:02.812Z,20.69
2022-10-02T01:51:18.029Z,20.74
2022-10-02T01:56:22.718Z,20.87
2022-10-02T02:01:33.539Z,20.75
2022-10-02T02:06:40.041Z,20.61
2022-10-02T02:11:45.892Z,20.42
2022-10-02T02:16:46.994Z,20.38
2022-10-02T02:21:51.626Z,20.39
2022-10-02T02:26:55.553Z,20.41
2022-10-02T02:31:55.503Z,20.20
2022-10-02T02:36:58.806Z,20.04
2022-10-02T02:42:04.227Z,20.08
2022-10-02T02:47:11.228Z,20.15
2022-10-02T02:52:15.940Z,20.04
2022-10-02T02:57:18.188Z,19.99
2022-10-02T03:02:17.088Z,19.80
2022-10-02T03:07:18.813Z,19.50
2022-10-02T03:12:28.838Z,19.38
2022-10-02T03:17:41.178Z,19.33
2022-10-02T03:22:47.806Z,19.33
2022-10-02T03:27:54.185Z,19.19
2022-10-02T03:32:54.040Z,19.10
2022-10-02T03:37:55.073Z,19.12
2022-10-02T03:42:58.390Z,18.86
2022-10-02T03:47:57.387Z,18.77
2022-10-02T03:52:56.251Z,18.91
2022-10-02T03:57:57.355Z,18.85
2022-10-02T04:03:00.092Z,18.62
2022-10-02T04:08:05.270Z,18.57
2022-10-02T04:13:12.254Z,18.42
2022-10-02T04:18:20.539Z,18.26
2022-10-02T04:23:25.689Z,18.35
2022-10-02T04:28:33.958Z,18.13
2022-10-02T04:33:37.687Z,18.19
2022-10-02T04:38:54.572Z,18.03
2022-10-02T04:44:05.591Z,18.04
2022-10-02T04:49:15.290Z,17.99
2022-10-02T04:54:32.282Z,18.04
2022-10-02T04:59:48.511Z,17.85
2022-10-02T05:05:19.769Z,17.76
2022-10-02T05:10:37.367Z,17.94
2022-10-02T05:15:58.734Z,17.98
2022-10-02T05:21:13.664Z,17.81
2022-10-02T05:26:45.677Z,17.95
2022-10-02T05:32:02.971Z,18.00
2022-10-02T05:37:28.806Z,18.11
2022-10-02T05:42:34.087Z,18.16
2022-10-02T05:47:39.686Z,17.98
2022-10-02T05:52:43.769Z,17.91
2022-10-02T05:57:48.766Z,17.94
2022-10-02T06:02:57.368Z,18.07
2022-10-02T06:08:00.031Z,18.09
2022-10-02T06:13:06.378Z,18.17
2022-10-02T06:18:11.160Z,18.26
2022-10-02T06:23:16.184Z,18.37
2022-10-02T06:28:18.833Z,18.19
2022-10-02T06:33:23.908Z,18.42
2022-10-02T06:38:36.607Z,18.42
2022-10-02T06:43:40.959Z,18.30
2022-10-02T06:48:53.198Z,18.35
2022-10-02T06:54:05.747Z,18.53
2022-10-02T06:59:16.163Z,18.56
2022-10-02T07:04:26.971Z,18.64
2022-10-02T07:09:56.174Z,18.72
2022-10-02T07:15:22.135Z,18.81
2022-10-02T07:20:35.612Z,18.77
2022-10-02T07:25:48.283Z,18.90
2022-10-02T07:30:52.014Z,18.83
2022-10-02T07:35:58.446Z,18.97
2022-10-02T07:41:07.433Z,19.06
2022-10-02T07:46:16.906Z,19.27
2022-10-02T07:51:50.182Z,19.25
2022-10-02T07:56:54.080Z,19.31
2022-10-02T08:01:53.547Z,19.44
2022-10-02T08:07:00.249Z,19.56
2022-10-02T08:12:06.233Z,19.74
2022-10-02T08:17:17.630Z,19.83
2022-10-02T08:22:24.831Z,19.80
2022-10-02T08:27:28.189Z,19.78
2022-10-02T08:32:34.891Z,19.76
2022-10-02T08:37:46.240Z,20.12
2022-10-02T08:43:16.309Z,20.42
2022-10-02T08:48:55.412Z,20.50
2022-10-02T08:54:28.314Z,20.69
2022-10-02T08:59:56.686Z,21.22
2022-10-02T09:05:42.933Z,21.52
2022-10-02T09:11:24.708Z,21.67
2022-10-02T09:16:30.561Z,22.29
2022-10-02T09:21:52.128Z,22.55
2022-10-02T09:27:13.451Z,22.86
2022-10-02T09:32:57.747Z,23.29
2022-10-02T09:38:42.759Z,23.03
2022-10-02T09:44:14.305Z,23.29
2022-10-02T09:49:48.512Z,23.07
2022-10-02T09:55:26.550Z,23.59
2022-10-02T10:00:39.004Z,24.30
2022-10-02T10:05:55.608Z,24.66
2022-10-02T10:11:07.597Z,24.80
2022-10-02T10:16:39.384Z,24.79
2022-10-02T10:22:23.042Z,24.77
2022-10-02T10:27:59.024Z,25.42
2022-10-02T10:33:34.783Z,25.45
2022-10-02T10:38:52.416Z,24.90
2022-10-02T10:44:18.390Z,24.82
2022-10-02T10:50:02.502Z,25.39
2022-10-02T10:55:13.403Z,26.09
2022-10-02T11:00:19.245Z,25.75
2022-10-02T11:05:36.040Z,25.38
2022-10-02T11:10:52.958Z,25.89
2022-10-02T11:16:20.873Z,26.16
2022-10-02T11:21:46.202Z,26.80
2022-10-02T11:27:05.280Z,26.35
2022-10-02T11:32:40.431Z,26.49
2022-10-02T11:38:09.527Z,26.16
2022-10-02T11:43:25.854Z,26.56
2022-10-02T11:48:57.621Z,26.79
2022-10-02T11:54:20.169Z,27.20
2022-10-02T11:59:44.158Z,26.83
2022-10-02T12:04:52.786Z,26.68
2022-10-02T12:10:28.549Z,26.04
2022-10-02T12:15:39.944Z,26.24
2022-10-02T12:21:01.978Z,26.95
2022-10-02T12:26:25.346Z,27.27
2022-10-02T12:31:33.572Z,26.73
2022-10-02T12:36:58.332Z,27.29
2022-10-02T12:42:27.383Z,27.94
2022-10-02T12:47:49.190Z,27.81
2022-10-02T12:53:11.904Z,27.70
2022-10-02T12:58:18.399Z,27.75
2022-10-02T13:03:43.563Z,27.92
2022-10-02T13:09:03.118Z,27.77
2022-10-02T13:14:32.528Z,27.69
2022-10-02T13:19:39.825Z,28.13
2022-10-02T13:24:55.896Z,28.01
2022-10-02T13:30:07.133Z,28.17
2022-10-02T13:35:36.820Z,27.87
2022-10-02T13:40:43.677Z,27.82
2022-10-02T13:45:50.745Z,27.60
2022-10-02T13:50:58.994Z,27.77
2022-10-02T13:56:09.147Z,27.42
2022-10-02T14:01:22.416Z,27.25
2022-10-02T14:06:27.471Z,27.09
2022-10-02T14:11:37.198Z,26.75
2022-10-02T14:16:52.725Z,26.45
2022-10-02T14:22:07.494Z,26.33
2022-10-02T14:27:15.844Z,26.41
2022-10-02T14:32:34.810Z,26.41
2022-10-02T14:38:15.079Z,26.51
2022-10-02T14:43:36.520Z,26.44
2022-10-02T14:48:55.292Z,26.70
2022-10-02T14:54:14.247Z,26.60
2022-10-02T14:59:32.497Z,26.09
2022-10-02T15:04:47.570Z,26.48
2022-10-02T15:10:01.348Z,26.51
2022-10-02T15:15:10.394Z,26.47
2022-10-02T15:20:21.820Z,26.21
2022-10-02T15:25:37.042Z,26.23
2022-10-02T15:30:41.821Z,26.25
2022-10-02T15:35:55.415Z,25.86
2022-10-02T15:41:19.720Z,25.28
2022-10-02T15:46:29.340Z,24.92
2022-10-02T15:51:47.249Z,24.70
2022-10-02T15:56:59.323Z,24.12
2022-10-02T16:02:15.445Z,23.58
2022-10-02T16:07:46.275Z,23.46
2022-10-02T16:13:12.575Z,23.24
2022-10-02T16:18:30.896Z,23.20
2022-10-02T16:23:55.568Z,23.05
2022-10-02T16:29:09.951Z,22.68
2022-10-02T16:34:25.816Z,22.38
2022-10-02T16:39:44.689Z,22.05
2022-10-02T16:45:23.942Z,21.82
2022-10-02T16:50:30.842Z,21.78
2022-10-02T16:55:33.804Z,21.81
2022-10-02T17:00:36.289Z,21.67
2022-10-02T17:05:46.207Z,21.55
2022-10-02T17:11:05.776Z,21.36
2022-10-02T17:16:11.232Z,21.32
2022-10-02T17:21:17.158Z,21.10
2022-10-02T17:26:32.809Z,21.04
2022-10-02T17:31:46.703Z,21.03
2022-10-02T17:36:55.557Z,20.86
2022-10-02T17:42:00.502Z,20.69
2022-10-02T17:47:21.320Z,20.54
2022-10-02T17:52:47.347Z,20.47
2022-10-02T17:58:03.134Z,20.24
2022-10-02T18:03:30.862Z,20.14
2022-10-02T18:09:03.316Z,20.18
2022-10-02T18:14:13.212Z,20.20
2022-10-02T18:19:27.966Z,20.14
2022-10-02T18:24:45.924Z,20.11
2022-10-02T18:30:02.757Z,19.99
2022-10-02T18:35:28.488Z,19.42
2022-10-02T18:40:31.242Z,19.55
2022-10-02T18:45:41.865Z,19.36
2022-10-02T18:50:56.482Z,19.12
2022-10-02T18:56:06.938Z,18.94
2022-10-02T19:01:22.832Z,18.99
2022-10-02T19:06:27.920Z,18.89
2022-10-02T19:11:30.528Z,18.91
2022-10-02T19:16:31.318Z,18.56
2022-10-02T19:21:30.292Z,18.55
2022-10-02T19:26:34.007Z,18.81
2022-10-02T19:31:39.752Z,18.74
2022-10-02T19:36:45.656Z,18.51
2022-10-02T19:41:46.416Z,18.68
2022-10-02T19:46:49.352Z,18.48
2022-10-02T19:51:48.899Z,18.56
2022-10-02T19:56:49.060Z,18.52
2022-10-02T20:01:52.880Z,18.50
2022-10-02T20:06:55.227Z,18.36
2022-10-02T20:12:01.323Z,18.27
2022-10-02T20:17:12.888Z,18.17
2022-10-02T20:22:28.072Z,18.19
2022-10-02T20:27:39.532Z,17.98
2022-10-02T20:32:46.781Z,17.80
2022-10-02T20:37:50.074Z,17.75
2022-10-02T20:42:59.160Z,17.60
2022-10-02T20:49:07.565Z,17.53
2022-10-02T20:54:27.676Z,17.62
2022-10-02T20:59:58.930Z,17.78
2022-10-02T21:05:23.570Z,17.67
2022-10-02T21:10:46.398Z,17.50
2022-10-02T21:15:53.305Z,17.17
2022-10-02T21:21:14.588Z,17.39
2022-10-02T21:27:00.507Z,17.47
2022-10-02T21:32:23.043Z,17.46
2022-10-02T21:37:29.445Z,17.54
2022-10-02T21:43:07.974Z,17.34
2022-10-02T21:48:58.519Z,17.27
2022-10-02T21:54:39.414Z,17.19
2022-10-02T22:00:07.115Z,17.12
2022-10-02T22:05:54.062Z,17.12
2022-10-02T22:11:02.137Z,17.06
2022-10-02T22:16:14.496Z,16.97
2022-10-02T22:21:35.301Z,16.88
2022-10-02T22:27:01.838Z,16.77
2022-10-02T22:32:27.206Z,16.47
2022-10-02T22:37:45.616Z,16.47
2022-10-02T22:42:52.078Z,16.62
2022-10-02T22:47:59.067Z,16.67
2022-10-02T22:53:05.741Z,16.44
2022-10-02T22:58:13.405Z,16.51
2022-10-02T23:03:19.959Z,16.51
2022-10-02T23:08:29.693Z,16.54
2022-10-02T23:13:35.645Z,16.60
2022-10-02T23:18:43.366Z,16.51
2022-10-02T23:23:51.017Z,16.31
2022-10-02T23:29:04.502Z,16.30
2022-10-02T23:34:20.461Z,16.24
2022-10-02T23:39:26.396Z,16.00
2022-10-02T23:44:34.592Z,16.22
2022-10-02T23:49:36.522Z,16.06
2022-10-02T23:54:49.767Z,16.22
